createdAt,value
2019-04-30T00:02:10.461Z,16.90
2019-04-30T00:04:45.233Z,17.45
2019-04-30T00:07:17.470Z,17.37
2019-04-30T00:09:49.341Z,18.57
2019-04-30T00:12:16.188Z,18.48
2019-04-30T00:14:45.392Z,17.65
2019-04-30T00:17:15.970Z,18.75
2019-04-30T00:19:45.889Z,18.90
2019-04-30T00:22:15.818Z,17.95
2019-04-30T00:24:49.717Z,19.17
2019-04-30T00:27:15.853Z,19.10
2019-04-30T00:29:45.759Z,18.05
2019-04-30T00:32:15.991Z,18.67
2019-04-30T00:34:45.621Z,20.05
2019-04-30T00:37:18.688Z,20.17
2019-04-30T00:39:50.881Z,19.40
2019-04-30T00:42:23.483Z,19.45
2019-04-30T00:44:47.498Z,19.32
2019-04-30T00:47:16.617Z,19.65
2019-04-30T00:49:47.241Z,19.27
2019-04-30T00:52:16.306Z,18.42
2019-04-30T00:54:45.494Z,20.27
2019-04-30T00:57:15.175Z,19.85
2019-04-30T00:59:47.865Z,21.10
2019-04-30T01:02:20.017Z,20.12
2019-04-30T01:04:49.162Z,20.00
2019-04-30T01:07:18.368Z,20.72
2019-04-30T01:09:49.830Z,20.12
2019-04-30T01:12:27.679Z,19.12
2019-04-30T01:14:49.784Z,20.72
2019-04-30T01:17:19.105Z,21.40
2019-04-30T01:19:51.177Z,19.17
2019-04-30T01:22:27.783Z,20.45
2019-04-30T01:24:50.118Z,21.50
2019-04-30T01:27:19.362Z,20.68
2019-04-30T01:29:48.785Z,20.72
2019-04-30T01:32:21.019Z,20.97
2019-04-30T01:34:52.551Z,22.67
2019-04-30T01:37:24.691Z,21.70
2019-04-30T01:39:50.416Z,21.62
2019-04-30T01:42:19.636Z,21.48
2019-04-30T01:44:53.593Z,21.48
2019-04-30T01:47:21.452Z,22.02
2019-04-30T01:49:50.579Z,22.07
2019-04-30T01:52:19.772Z,20.88
2019-04-30T01:54:49.094Z,22.35
2019-04-30T01:57:22.440Z,20.25
2019-04-30T02:00:09.723Z,22.62
2019-04-30T02:02:40.605Z,20.35
2019-04-30T02:05:09.798Z,20.85
2019-04-30T02:07:40.416Z,20.97
2019-04-30T02:10:09.588Z,19.65
2019-04-30T02:12:39.308Z,21.57
2019-04-30T02:15:09.520Z,20.85
2019-04-30T02:17:38.971Z,19.70
2019-04-30T02:20:08.896Z,20.45
2019-04-30T02:22:38.953Z,20.32
2019-04-30T02:25:09.599Z,19.15
2019-04-30T02:27:39.138Z,20.55
2019-04-30T02:30:11.205Z,19.82
2019-04-30T02:32:39.588Z,20.92
2019-04-30T02:35:16.376Z,20.75
2019-04-30T02:38:03.537Z,20.82
2019-04-30T02:40:32.747Z,19.82
2019-04-30T02:43:02.556Z,20.65
2019-04-30T02:45:31.810Z,21.07
2019-04-30T02:48:00.889Z,21.10
2019-04-30T02:50:30.205Z,19.02
2019-04-30T02:53:00.287Z,21.23
2019-04-30T02:55:44.019Z,19.87
2019-04-30T02:58:13.636Z,19.80
2019-04-30T03:00:42.813Z,20.30
2019-04-30T03:03:12.076Z,20.08
2019-04-30T03:05:41.279Z,21.82
2019-04-30T03:08:10.357Z,19.30
2019-04-30T03:10:40.257Z,19.10
2019-04-30T03:13:09.805Z,20.65
2019-04-30T03:15:39.563Z,20.02
2019-04-30T03:18:16.179Z,19.95
2019-04-30T03:20:52.517Z,20.50
2019-04-30T03:23:21.690Z,21.68
2019-04-30T03:25:50.992Z,21.45
2019-04-30T03:28:20.395Z,21.12
2019-04-30T03:30:51.900Z,20.82
2019-04-30T03:33:22.804Z,23.98
2019-04-30T03:35:54.372Z,23.62
2019-04-30T03:38:21.745Z,23.45
2019-04-30T03:40:50.766Z,25.37
2019-04-30T03:43:20.213Z,25.30
2019-04-30T03:45:50.061Z,24.87
2019-04-30T03:48:20.097Z,25.27
2019-04-30T03:50:56.345Z,24.45
2019-04-30T03:53:20.408Z,21.75
2019-04-30T03:55:50.569Z,23.45
2019-04-30T03:58:21.413Z,22.30
2019-04-30T04:00:52.761Z,19.75
2019-04-30T04:03:22.069Z,20.50
2019-04-30T04:05:52.964Z,18.92
2019-04-30T04:08:29.199Z,21.23
2019-04-30T04:11:00.451Z,20.90
2019-04-30T04:13:33.030Z,21.97
2019-04-30T04:16:00.635Z,20.62
2019-04-30T04:18:30.240Z,21.82
2019-04-30T04:21:10.092Z,21.25
2019-04-30T04:23:32.755Z,23.18
2019-04-30T04:26:01.390Z,21.15
2019-04-30T04:28:30.677Z,21.60
2019-04-30T04:31:00.277Z,21.52
2019-04-30T04:33:30.855Z,24.00
2019-04-30T04:36:00.148Z,22.37
2019-04-30T04:38:30.396Z,22.58
2019-04-30T04:41:03.003Z,22.00
2019-04-30T04:43:30.751Z,22.22
2019-04-30T04:46:00.086Z,22.25
2019-04-30T04:48:29.785Z,22.15
2019-04-30T04:50:59.993Z,22.58
2019-04-30T04:53:30.509Z,23.65
2019-04-30T04:56:00.000Z,24.05
2019-04-30T04:58:30.276Z,25.90
2019-04-30T05:00:59.868Z,25.37
2019-04-30T05:03:30.637Z,26.30
2019-04-30T05:06:02.370Z,28.15
2019-04-30T05:08:30.756Z,27.15
2019-04-30T05:10:59.987Z,25.02
2019-04-30T05:13:29.380Z,25.40
2019-04-30T05:15:59.393Z,26.12
2019-04-30T05:18:29.142Z,27.05
2019-04-30T05:20:59.000Z,28.87
2019-04-30T05:23:29.858Z,27.42
2019-04-30T05:25:59.239Z,26.73
2019-04-30T05:28:30.294Z,26.68
2019-04-30T05:30:59.560Z,24.18
2019-04-30T05:33:28.917Z,25.02
2019-04-30T05:35:59.430Z,25.82
2019-04-30T05:38:28.717Z,26.07
2019-04-30T05:40:59.634Z,26.77
2019-04-30T05:43:29.055Z,25.62
2019-04-30T05:45:58.768Z,25.57
2019-04-30T05:48:28.654Z,24.43
2019-04-30T05:50:59.117Z,23.73
2019-04-30T05:53:28.785Z,23.12
2019-04-30T05:55:59.317Z,23.52
2019-04-30T05:58:29.939Z,21.77
2019-04-30T06:00:59.855Z,21.07
2019-04-30T06:03:32.808Z,21.48
2019-04-30T06:05:59.867Z,22.87
2019-04-30T06:08:30.588Z,20.45
2019-04-30T06:11:10.603Z,22.10
2019-04-30T06:13:58.869Z,23.87
2019-04-30T06:16:29.887Z,22.13
2019-04-30T06:18:59.207Z,24.25
2019-04-30T06:21:29.469Z,22.32
2019-04-30T06:23:59.163Z,21.02
2019-04-30T06:26:29.538Z,22.30
2019-04-30T06:28:59.300Z,19.92
2019-04-30T06:31:34.851Z,20.25
2019-04-30T06:33:59.272Z,20.97
2019-04-30T06:36:28.668Z,20.23
2019-04-30T06:38:58.962Z,20.23
2019-04-30T06:41:29.586Z,18.80
2019-04-30T06:43:58.926Z,20.25
2019-04-30T06:46:28.646Z,20.35
2019-04-30T06:48:59.511Z,21.82
2019-04-30T06:51:30.529Z,21.87
2019-04-30T06:53:59.768Z,20.77
2019-04-30T06:56:29.006Z,21.55
2019-04-30T06:58:59.057Z,20.80
2019-04-30T07:01:29.054Z,21.33
2019-04-30T07:04:00.801Z,20.72
2019-04-30T07:06:32.315Z,20.65
2019-04-30T07:09:08.835Z,21.33
2019-04-30T07:11:49.361Z,20.30
2019-04-30T07:14:19.521Z,20.12
2019-04-30T07:16:49.489Z,19.57
2019-04-30T07:19:29.937Z,19.42
2019-04-30T07:21:49.749Z,21.10
2019-04-30T07:24:20.772Z,18.62
2019-04-30T07:26:49.739Z,18.70
2019-04-30T07:29:19.650Z,19.32
2019-04-30T07:31:48.998Z,18.60
2019-04-30T07:34:19.810Z,19.92
2019-04-30T07:37:02.202Z,19.75
2019-04-30T07:39:23.386Z,21.02
2019-04-30T07:41:50.606Z,20.30
2019-04-30T07:44:32.626Z,21.02
2019-04-30T07:46:50.421Z,20.32
2019-04-30T07:49:20.493Z,20.10
2019-04-30T07:51:51.734Z,20.57
2019-04-30T07:54:21.044Z,20.72
2019-04-30T07:56:50.823Z,19.90
2019-04-30T07:59:20.290Z,18.67
2019-04-30T08:02:03.162Z,17.73
2019-04-30T08:04:29.274Z,19.95
2019-04-30T08:07:00.357Z,20.70
2019-04-30T08:09:38.648Z,26.25
2019-04-30T08:12:00.389Z,21.25
2019-04-30T08:14:29.517Z,21.57
2019-04-30T08:16:59.031Z,20.70
2019-04-30T08:19:28.742Z,22.58
2019-04-30T08:21:58.608Z,20.72
2019-04-30T08:24:29.182Z,23.77
2019-04-30T08:26:59.087Z,21.93
2019-04-30T08:29:29.479Z,25.62
2019-04-30T08:31:59.379Z,23.18
2019-04-30T08:34:29.224Z,22.50
2019-04-30T08:36:59.478Z,20.72
2019-04-30T08:39:29.436Z,20.00
2019-04-30T08:42:00.051Z,19.95
2019-04-30T08:44:29.626Z,19.73
2019-04-30T08:46:59.134Z,22.55
2019-04-30T08:49:30.559Z,20.20
2019-04-30T08:51:59.220Z,19.32
2019-04-30T08:54:29.487Z,23.70
2019-04-30T08:56:59.446Z,22.85
2019-04-30T08:59:29.442Z,19.30
2019-04-30T09:02:00.090Z,19.23
2019-04-30T09:04:29.714Z,21.02
2019-04-30T09:06:59.981Z,21.02
2019-04-30T09:09:29.624Z,19.00
2019-04-30T09:11:59.290Z,21.60
2019-04-30T09:14:29.810Z,19.87
2019-04-30T09:16:59.615Z,18.50
2019-04-30T09:19:29.812Z,21.82
2019-04-30T09:21:59.339Z,22.35
2019-04-30T09:24:30.777Z,21.33
2019-04-30T09:26:59.372Z,21.10
2019-04-30T09:29:29.401Z,20.10
2019-04-30T09:31:59.391Z,19.15
2019-04-30T09:34:29.198Z,18.55
2019-04-30T09:36:59.204Z,21.68
2019-04-30T09:39:29.522Z,19.70
2019-04-30T09:41:59.589Z,19.85
2019-04-30T09:44:30.721Z,19.20
2019-04-30T09:46:59.738Z,19.70
2019-04-30T09:49:29.449Z,17.98
2019-04-30T09:51:59.556Z,18.77
2019-04-30T09:54:29.827Z,18.90
2019-04-30T09:56:59.442Z,17.00
2019-04-30T09:59:29.188Z,15.70
2019-04-30T10:01:58.522Z,18.70
2019-04-30T10:04:30.063Z,18.05
2019-04-30T10:06:59.548Z,19.17
2019-04-30T10:09:29.351Z,16.97
2019-04-30T10:12:00.136Z,15.83
2019-04-30T10:14:29.269Z,16.35
2019-04-30T10:17:00.037Z,18.07
2019-04-30T10:19:29.351Z,17.57
2019-04-30T10:21:58.991Z,17.35
2019-04-30T10:24:29.493Z,17.45
2019-04-30T10:26:58.927Z,17.60
2019-04-30T10:29:28.130Z,16.62
2019-04-30T10:31:58.786Z,16.57
2019-04-30T10:34:28.240Z,16.42
2019-04-30T10:36:59.616Z,16.15
2019-04-30T10:39:29.705Z,15.68
2019-04-30T10:41:58.944Z,16.73
2019-04-30T10:44:29.826Z,16.12
2019-04-30T10:46:59.410Z,16.05
2019-04-30T10:49:29.170Z,16.40
2019-04-30T10:51:59.402Z,15.43
2019-04-30T10:54:29.343Z,14.93
2019-04-30T10:56:59.145Z,15.10
2019-04-30T10:59:28.714Z,14.47
2019-04-30T11:01:59.174Z,15.30
2019-04-30T11:04:28.500Z,14.10
2019-04-30T11:07:00.062Z,14.58
2019-04-30T11:09:31.028Z,15.60
2019-04-30T11:12:03.059Z,16.12
2019-04-30T11:14:31.535Z,16.35
2019-04-30T11:17:01.082Z,18.25
2019-04-30T11:19:30.593Z,17.25
2019-04-30T11:22:00.104Z,17.02
2019-04-30T11:24:36.602Z,12.82
2019-04-30T11:27:01.162Z,12.90
2019-04-30T11:29:31.049Z,12.13
2019-04-30T11:32:02.035Z,11.10
2019-04-30T11:34:31.452Z,11.80
2019-04-30T11:37:00.725Z,10.25
2019-04-30T11:39:29.939Z,14.83
2019-04-30T11:41:59.249Z,15.40
2019-04-30T11:44:31.478Z,15.30
2019-04-30T11:47:02.639Z,15.00
2019-04-30T11:49:31.757Z,13.35
2019-04-30T11:52:01.305Z,13.03
2019-04-30T11:54:30.531Z,12.93
2019-04-30T11:56:59.730Z,13.55
2019-04-30T11:59:29.729Z,13.22
2019-04-30T12:02:00.620Z,12.78
2019-04-30T12:04:30.034Z,13.18
2019-04-30T12:07:00.681Z,12.15
2019-04-30T12:09:40.747Z,12.88
2019-04-30T12:12:10.052Z,13.05
2019-04-30T12:14:39.613Z,12.18
2019-04-30T12:17:09.171Z,11.05
2019-04-30T12:19:38.873Z,11.68
2019-04-30T12:22:08.239Z,13.15
2019-04-30T12:24:38.818Z,13.13
2019-04-30T12:27:08.333Z,12.75
2019-04-30T12:29:39.640Z,11.30
2019-04-30T12:32:08.463Z,12.23
2019-04-30T12:34:37.708Z,12.82
2019-04-30T12:37:06.859Z,14.15
2019-04-30T12:39:36.338Z,11.95
2019-04-30T12:42:05.480Z,11.73
2019-04-30T12:44:34.653Z,13.53
2019-04-30T12:47:04.424Z,13.25
2019-04-30T12:49:44.315Z,11.30
2019-04-30T12:52:30.193Z,12.85
2019-04-30T12:55:01.036Z,15.00
2019-04-30T12:57:31.770Z,14.00
2019-04-30T13:00:00.780Z,12.30
2019-04-30T13:02:31.507Z,12.58
2019-04-30T13:05:00.882Z,12.53
2019-04-30T13:07:30.871Z,11.20
2019-04-30T13:10:02.164Z,12.58
2019-04-30T13:12:32.240Z,11.78
2019-04-30T13:15:01.966Z,12.73
2019-04-30T13:17:31.501Z,12.68
2019-04-30T13:20:00.550Z,12.40
2019-04-30T13:22:29.872Z,13.45
2019-04-30T13:24:59.743Z,13.48
2019-04-30T13:27:30.689Z,13.65
2019-04-30T13:30:10.249Z,13.18
2019-04-30T13:32:41.352Z,12.90
2019-04-30T13:35:10.631Z,14.55
2019-04-30T13:37:44.578Z,13.32
2019-04-30T13:42:52.969Z,11.63
2019-04-30T13:45:22.316Z,11.90
2019-04-30T13:47:51.620Z,12.88
2019-04-30T13:50:21.536Z,12.53
2019-04-30T13:52:50.738Z,13.68
2019-04-30T13:55:19.882Z,12.75
2019-04-30T13:57:49.154Z,12.45
2019-04-30T14:00:19.829Z,12.90
2019-04-30T14:02:50.468Z,12.63
2019-04-30T14:05:19.849Z,12.07
2019-04-30T14:07:53.457Z,12.95
2019-04-30T14:10:22.426Z,12.23
2019-04-30T14:12:53.051Z,14.10
2019-04-30T14:15:22.277Z,12.18
2019-04-30T14:17:51.613Z,11.53
2019-04-30T14:20:21.093Z,12.60
2019-04-30T14:22:50.162Z,12.58
2019-04-30T14:25:19.163Z,12.55
2019-04-30T14:27:52.235Z,12.63
2019-04-30T14:30:19.202Z,12.80
2019-04-30T14:32:50.614Z,12.82
2019-04-30T14:35:19.428Z,11.73
2019-04-30T14:37:49.659Z,12.30
2019-04-30T14:40:22.407Z,12.85
2019-04-30T14:42:56.836Z,12.15
2019-04-30T14:45:31.462Z,12.55
2019-04-30T14:48:08.888Z,12.65
2019-04-30T14:50:38.615Z,11.97
2019-04-30T14:53:18.279Z,12.50
2019-04-30T14:56:09.494Z,11.95
2019-04-30T14:58:49.559Z,13.48
2019-04-30T15:01:26.326Z,13.13
2019-04-30T15:03:55.336Z,12.33
2019-04-30T15:06:24.573Z,13.22
2019-04-30T15:08:53.771Z,12.90
2019-04-30T15:11:22.964Z,12.65
2019-04-30T15:13:52.184Z,13.15
2019-04-30T15:16:21.473Z,14.38
2019-04-30T15:18:50.694Z,13.62
2019-04-30T15:21:20.012Z,14.00
2019-04-30T15:23:58.719Z,15.05
2019-04-30T15:26:22.918Z,16.05
2019-04-30T15:28:52.525Z,15.58
2019-04-30T15:31:21.887Z,17.02
2019-04-30T15:34:02.962Z,16.67
2019-04-30T15:36:29.343Z,15.78
2019-04-30T15:39:03.339Z,16.70
2019-04-30T15:41:32.551Z,16.27
2019-04-30T15:44:02.725Z,16.12
2019-04-30T15:46:32.028Z,16.32
2019-04-30T15:49:01.302Z,15.63
2019-04-30T15:51:30.583Z,16.35
2019-04-30T15:53:59.683Z,15.93
2019-04-30T15:56:37.050Z,16.73
2019-04-30T15:59:10.178Z,16.40
2019-04-30T16:01:41.011Z,16.50
2019-04-30T16:04:11.805Z,16.42
2019-04-30T16:06:41.012Z,16.95
2019-04-30T16:09:15.180Z,16.73
2019-04-30T16:11:49.213Z,16.62
2019-04-30T16:17:06.665Z,16.65
2019-04-30T16:19:36.101Z,17.27
2019-04-30T16:22:05.542Z,17.00
2019-04-30T16:24:34.644Z,15.98
2019-04-30T16:27:04.046Z,16.00
2019-04-30T16:29:33.293Z,16.65
2019-04-30T16:32:02.449Z,15.70
2019-04-30T16:34:39.860Z,17.52
2019-04-30T16:37:08.437Z,17.65
2019-04-30T16:39:39.675Z,16.73
2019-04-30T16:42:09.105Z,16.97
2019-04-30T16:44:38.309Z,15.68
2019-04-30T16:47:13.723Z,17.90
2019-04-30T16:49:38.778Z,19.17
2019-04-30T16:52:09.209Z,16.90
2019-04-30T16:54:39.514Z,17.57
2019-04-30T16:57:10.298Z,17.87
2019-04-30T16:59:43.073Z,17.65
2019-04-30T17:02:13.081Z,18.12
2019-04-30T17:04:49.758Z,17.57
2019-04-30T17:07:29.300Z,16.10
2019-04-30T17:10:00.176Z,17.23
2019-04-30T17:12:33.808Z,15.10
2019-04-30T17:15:19.935Z,18.00
2019-04-30T17:17:49.748Z,17.95
2019-04-30T17:20:20.869Z,17.77
2019-04-30T17:22:50.497Z,18.37
2019-04-30T17:25:19.787Z,17.40
2019-04-30T17:27:49.084Z,18.77
2019-04-30T17:30:19.330Z,16.17
2019-04-30T17:32:49.898Z,17.17
2019-04-30T17:35:19.297Z,17.25
2019-04-30T17:37:48.860Z,17.30
2019-04-30T17:40:19.232Z,16.87
2019-04-30T17:42:48.382Z,16.48
2019-04-30T17:45:19.382Z,17.77
2019-04-30T17:47:48.341Z,16.77
2019-04-30T17:50:18.769Z,16.20
2019-04-30T17:52:48.108Z,17.35
2019-04-30T17:55:19.354Z,17.60
2019-04-30T17:57:48.716Z,18.48
2019-04-30T18:00:22.060Z,16.40
2019-04-30T18:02:49.072Z,16.85
2019-04-30T18:05:19.441Z,17.80
2019-04-30T18:07:49.769Z,16.93
2019-04-30T18:10:20.218Z,17.23
2019-04-30T18:12:49.466Z,15.75
2019-04-30T18:15:20.286Z,17.37
2019-04-30T18:17:51.082Z,17.23
2019-04-30T18:20:34.479Z,17.27
2019-04-30T18:23:21.487Z,17.37
2019-04-30T18:25:52.229Z,17.12
2019-04-30T18:28:21.477Z,17.32
2019-04-30T18:30:50.888Z,16.17
2019-04-30T18:33:20.195Z,16.60
2019-04-30T18:35:49.501Z,17.23
2019-04-30T18:38:19.003Z,16.97
2019-04-30T18:40:49.555Z,16.42
2019-04-30T18:43:20.673Z,16.32
2019-04-30T18:45:51.629Z,15.93
2019-04-30T18:48:21.139Z,17.02
2019-04-30T18:50:50.896Z,16.23
2019-04-30T18:53:22.719Z,16.37
2019-04-30T18:55:53.877Z,16.57
2019-04-30T18:58:37.538Z,16.17
2019-04-30T19:00:59.264Z,15.98
2019-04-30T19:03:39.939Z,17.32
2019-04-30T19:06:23.740Z,15.38
2019-04-30T19:09:12.174Z,16.02
2019-04-30T19:12:05.160Z,17.57
2019-04-30T19:14:43.061Z,16.62
2019-04-30T19:17:29.625Z,15.58
2019-04-30T19:20:21.545Z,15.03
2019-04-30T19:22:56.048Z,16.12
2019-04-30T19:25:30.587Z,15.88
2019-04-30T19:28:12.151Z,16.30
2019-04-30T19:30:55.023Z,16.70
2019-04-30T19:33:21.577Z,15.68
2019-04-30T19:35:58.555Z,15.75
2019-04-30T19:38:33.236Z,16.20
2019-04-30T19:41:06.230Z,16.45
2019-04-30T19:43:41.657Z,17.10
2019-04-30T19:47:09.297Z,17.05
2019-04-30T19:49:48.882Z,15.58
2019-04-30T19:52:25.222Z,16.80
2019-04-30T19:55:00.390Z,16.25
2019-04-30T19:57:39.867Z,16.35
2019-04-30T20:00:17.208Z,16.25
2019-04-30T20:02:57.151Z,17.02
2019-04-30T20:05:30.947Z,16.37
2019-04-30T20:08:10.821Z,17.82
2019-04-30T20:10:44.756Z,17.00
2019-04-30T20:13:31.220Z,17.30
2019-04-30T20:15:56.082Z,18.30
2019-04-30T20:18:32.411Z,15.93
2019-04-30T20:21:09.069Z,16.82
2019-04-30T20:23:46.867Z,18.17
2019-04-30T20:26:26.137Z,17.23
2019-04-30T20:29:01.453Z,16.70
2019-04-30T20:31:36.373Z,17.05
2019-04-30T20:34:13.597Z,16.30
2019-04-30T20:36:47.933Z,16.82
2019-04-30T20:39:32.549Z,17.48
2019-04-30T20:44:34.174Z,16.30
2019-04-30T20:47:06.496Z,17.23
2019-04-30T20:49:46.443Z,17.07
2019-04-30T20:52:20.731Z,15.98
2019-04-30T20:54:55.925Z,16.77
2019-04-30T20:57:29.542Z,17.27
2019-04-30T21:00:03.304Z,15.88
2019-04-30T21:02:34.786Z,17.07
2019-04-30T21:05:07.487Z,17.62
2019-04-30T21:07:42.180Z,16.27
2019-04-30T21:10:19.928Z,16.70
2019-04-30T21:12:50.586Z,16.82
2019-04-30T21:15:20.342Z,16.32
2019-04-30T21:17:50.833Z,18.32
2019-04-30T21:20:22.946Z,17.60
2019-04-30T21:22:52.753Z,17.65
2019-04-30T21:25:22.341Z,17.10
2019-04-30T21:27:51.942Z,18.07
2019-04-30T21:30:21.287Z,16.93
2019-04-30T21:32:51.975Z,17.62
2019-04-30T21:35:25.960Z,18.23
2019-04-30T21:37:56.868Z,17.95
2019-04-30T21:40:26.465Z,17.82
2019-04-30T21:42:55.797Z,17.02
2019-04-30T21:45:25.127Z,16.67
2019-04-30T21:47:56.376Z,17.65
2019-04-30T21:53:53.259Z,17.87
2019-04-30T21:56:22.455Z,19.57
2019-04-30T21:58:51.666Z,20.05
2019-04-30T22:01:24.536Z,20.25
2019-04-30T22:03:53.631Z,18.95
2019-04-30T22:06:24.374Z,18.77
2019-04-30T22:08:53.528Z,17.32
2019-04-30T22:11:22.726Z,17.20
2019-04-30T22:13:51.879Z,18.30
2019-04-30T22:16:21.204Z,18.12
2019-04-30T22:18:50.487Z,18.00
2019-04-30T22:21:19.591Z,18.23
2019-04-30T22:23:48.814Z,18.57
2019-04-30T22:26:17.907Z,20.52
2019-04-30T22:28:47.039Z,18.82
2019-04-30T22:31:16.136Z,18.62
2019-04-30T22:33:45.381Z,18.15
2019-04-30T22:36:16.150Z,18.62
2019-04-30T22:38:53.080Z,17.90
2019-04-30T22:41:29.794Z,16.55
2019-04-30T22:43:59.086Z,17.92
2019-04-30T22:46:29.382Z,19.27
2019-04-30T22:48:58.650Z,20.05
2019-04-30T22:51:27.887Z,20.23
2019-04-30T22:53:57.200Z,18.67
2019-04-30T22:56:26.437Z,18.17
2019-04-30T22:58:55.678Z,17.82
2019-04-30T23:01:35.536Z,19.95
2019-04-30T23:04:09.234Z,19.15
2019-04-30T23:06:38.530Z,18.37
2019-04-30T23:09:08.426Z,18.07
2019-04-30T23:11:37.680Z,18.92
2019-04-30T23:14:06.891Z,19.10
2019-04-30T23:16:36.067Z,19.00
2019-04-30T23:19:05.242Z,18.37
2019-04-30T23:21:34.376Z,18.32
2019-04-30T23:24:03.562Z,17.92
2019-04-30T23:26:32.593Z,18.00
2019-04-30T23:29:01.854Z,18.27
2019-04-30T23:31:31.074Z,18.70
2019-04-30T23:34:00.251Z,19.10
2019-04-30T23:36:29.459Z,19.55
2019-04-30T23:38:58.718Z,18.70
2019-04-30T23:41:27.958Z,17.62
2019-04-30T23:43:57.094Z,18.70
2019-04-30T23:46:26.412Z,18.05
2019-04-30T23:48:55.688Z,19.17
2019-04-30T23:51:25.102Z,17.45
2019-04-30T23:53:54.278Z,18.85
2019-04-30T23:56:26.175Z,18.45
2019-04-30T23:58:55.421Z,19.05
